Time;durP1;ratioP1;P1;durP2;ratioP2;P2;SDS_P1;SDS_P2;PMS_P1;PMS_P2;Temp;Humidity;BMP_temperature;BMP_pressure;BME280_temperature;BME280_humidity;BME280_pressure;Samples;Min_cycle;Max_cycle;Signal;HPM_P1;HPM_P2
2023/04/06 00:01:45;;;;;;;;;;;5.10;38.80;;;;;;5054024;28;19915;-58
2023/04/06 00:04:11;;;;;;;;;;;5.10;38.90;;;;;;5053963;28;19928;-58
2023/04/06 00:06:36;;;;;;;;;;;5.00;38.90;;;;;;5052904;28;19959;-57
2023/04/06 00:09:02;;;;;;;;;;;5.00;38.90;;;;;;5053926;28;20380;-58
2023/04/06 00:11:27;;;;;;;;;;;5.00;38.90;;;;;;5053829;28;20398;-58
2023/04/06 00:13:53;;;;;;;;;;;5.00;39.00;;;;;;5040219;28;19929;-57
2023/04/06 00:16:18;;;;;;;;;;;5.00;39.10;;;;;;5034191;28;19909;-58
2023/04/06 00:18:44;;;;;;;;;;;5.00;39.20;;;;;;5034103;28;19970;-59
2023/04/06 00:21:14;;;;;;;;;;;4.90;39.50;;;;;;5033993;28;19999;-59
2023/04/06 00:23:40;;;;;;;;;;;5.00;40.10;;;;;;5033988;28;20403;-60
2023/04/06 00:26:05;;;;;;;;;;;5.00;40.10;;;;;;5034180;28;20370;-59
2023/04/06 00:28:31;;;;;;;;;;;5.00;40.10;;;;;;5033724;28;19921;-59
2023/04/06 00:30:56;;;;;;;;;;;4.90;40.10;;;;;;5033848;28;19909;-59
2023/04/06 00:33:22;;;;;;;;;;;4.90;40.10;;;;;;5033549;28;20324;-63
2023/04/06 00:35:48;;;;;;;;;;;4.90;40.10;;;;;;5045148;28;20411;-58
2023/04/06 00:38:13;;;;;;;;;;;4.90;40.10;;;;;;5052514;28;20506;-57
2023/04/06 00:40:39;;;;;;;;;;;4.90;40.00;;;;;;5053723;28;20012;-59
2023/04/06 00:43:10;;;;;;;;;;;4.90;40.10;;;;;;5047668;28;19921;-59
2023/04/06 00:45:37;;;;;;;;;;;4.90;40.10;;;;;;5033628;28;19924;-58
2023/04/06 00:48:03;;;;;;;;;;;4.90;40.10;;;;;;5033569;28;19913;-59
2023/04/06 00:50:29;;;;;;;;;;;4.90;40.30;;;;;;5033548;28;20427;-59
2023/04/06 00:52:55;;;;;;;;;;;4.90;40.40;;;;;;5033497;28;19913;-58
2023/04/06 00:55:20;;;;;;;;;;;4.90;40.50;;;;;;5033643;28;19936;-59
2023/04/06 00:57:46;;;;;;;;;;;4.90;40.70;;;;;;5033030;28;19914;-63
2023/04/06 01:00:12;;;;;;;;;;;4.90;40.90;;;;;;5033504;28;19909;-59
2023/04/06 01:02:38;;;;;;;;;;;5.00;41.60;;;;;;5031919;28;20396;-59
2023/04/06 01:05:04;;;;;;;;;;;5.00;41.20;;;;;;5033326;28;19909;-59
2023/04/06 01:07:29;;;;;;;;;;;5.00;41.10;;;;;;5032956;28;19921;-59
2023/04/06 01:09:54;;;;;;;;;;;4.90;41.10;;;;;;5033242;28;19920;-59
2023/04/06 01:12:20;;;;;;;;;;;5.00;41.10;;;;;;5033052;28;19913;-58
2023/04/06 01:14:46;;;;;;;;;;;5.00;41.20;;;;;;5033415;28;19909;-58
2023/04/06 01:17:11;;;;;;;;;;;5.00;41.30;;;;;;5033583;28;19919;-59
2023/04/06 01:19:37;;;;;;;;;;;5.00;41.30;;;;;;5033172;28;20011;-58
2023/04/06 01:22:02;;;;;;;;;;;4.90;41.20;;;;;;5033449;28;19948;-58
2023/04/06 01:24:28;;;;;;;;;;;4.90;41.20;;;;;;5032884;28;20348;-58
2023/04/06 01:26:53;;;;;;;;;;;4.90;41.60;;;;;;5032740;28;19968;-59
2023/04/06 01:29:19;;;;;;;;;;;4.90;41.40;;;;;;5033314;28;19914;-58
2023/04/06 01:31:44;;;;;;;;;;;4.90;41.40;;;;;;5033112;28;20007;-58
2023/04/06 01:34:10;;;;;;;;;;;4.90;41.20;;;;;;5032731;28;19913;-59
2023/04/06 01:36:35;;;;;;;;;;;4.80;41.20;;;;;;5050542;28;19957;-57
2023/04/06 01:39:01;;;;;;;;;;;4.80;41.20;;;;;;5052511;28;19921;-57
2023/04/06 01:41:26;;;;;;;;;;;4.80;41.10;;;;;;5052751;28;19920;-58
2023/04/06 01:43:54;;;;;;;;;;;4.80;41.20;;;;;;5053007;28;20304;-62
2023/04/06 01:46:20;;;;;;;;;;;4.70;41.30;;;;;;5052290;28;19916;-58
2023/04/06 01:48:45;;;;;;;;;;;4.70;41.40;;;;;;5052414;28;20091;-59
2023/04/06 01:51:11;;;;;;;;;;;4.70;41.40;;;;;;5052555;28;20408;-58
2023/04/06 01:53:36;;;;;;;;;;;4.70;41.60;;;;;;5052310;28;20270;-58
2023/04/06 01:56:01;;;;;;;;;;;4.70;41.70;;;;;;5052399;28;19989;-58
2023/04/06 01:58:27;;;;;;;;;;;4.70;42.10;;;;;;5052235;28;20293;-58
2023/04/06 02:00:52;;;;;;;;;;;4.70;42.00;;;;;;5052427;28;19923;-58
2023/04/06 02:03:18;;;;;;;;;;;4.70;42.00;;;;;;5052032;28;20368;-57
2023/04/06 02:05:43;;;;;;;;;;;4.70;42.00;;;;;;5051953;28;19913;-58
2023/04/06 02:08:09;;;;;;;;;;;4.70;41.90;;;;;;5051594;28;19913;-58
2023/04/06 02:10:34;;;;;;;;;;;4.60;42.00;;;;;;5051045;28;19924;-58
2023/04/06 02:13:00;;;;;;;;;;;4.70;42.00;;;;;;5045192;28;19913;-57
2023/04/06 02:15:26;;;;;;;;;;;4.70;41.90;;;;;;5032063;28;19913;-58
2023/04/06 02:17:51;;;;;;;;;;;4.70;42.00;;;;;;5031789;28;19913;-58
2023/04/06 02:20:17;;;;;;;;;;;4.70;42.20;;;;;;5031774;28;19920;-63
2023/04/06 02:22:42;;;;;;;;;;;4.70;42.20;;;;;;5031697;28;20012;-59
2023/04/06 02:25:08;;;;;;;;;;;4.70;42.10;;;;;;5031581;28;19913;-58
2023/04/06 02:27:34;;;;;;;;;;;4.60;42.00;;;;;;5030275;28;20273;-58
2023/04/06 02:29:59;;;;;;;;;;;4.60;42.00;;;;;;5031897;28;19909;-57
2023/04/06 02:32:25;;;;;;;;;;;4.60;42.10;;;;;;5031858;28;19919;-58
2023/04/06 02:34:51;;;;;;;;;;;4.60;42.30;;;;;;5034859;28;19909;-59
2023/04/06 02:37:16;;;;;;;;;;;4.60;42.20;;;;;;5051914;28;20344;-59
2023/04/06 02:39:41;;;;;;;;;;;4.60;42.10;;;;;;5051141;28;19967;-58
2023/04/06 02:42:08;;;;;;;;;;;4.50;42.10;;;;;;5051806;28;20384;-59
2023/04/06 02:44:34;;;;;;;;;;;4.50;42.20;;;;;;5051523;28;19953;-58
2023/04/06 02:46:59;;;;;;;;;;;4.50;42.20;;;;;;5051910;28;20392;-58
2023/04/06 02:49:25;;;;;;;;;;;4.50;42.10;;;;;;5051189;28;19919;-58
2023/04/06 02:51:50;;;;;;;;;;;4.50;42.10;;;;;;5051504;28;19967;-58
2023/04/06 02:54:16;;;;;;;;;;;4.50;42.30;;;;;;5051165;28;19913;-58
2023/04/06 02:56:41;;;;;;;;;;;4.40;42.30;;;;;;5051551;28;19913;-58
2023/04/06 02:59:06;;;;;;;;;;;4.40;42.20;;;;;;5051312;28;20383;-58
2023/04/06 03:01:32;;;;;;;;;;;4.40;42.10;;;;;;5051700;28;20364;-59
2023/04/06 03:03:57;;;;;;;;;;;4.40;42.10;;;;;;5051750;28;19971;-59
2023/04/06 03:06:23;;;;;;;;;;;4.40;42.10;;;;;;5051089;28;19927;-59
2023/04/06 03:08:48;;;;;;;;;;;4.30;42.00;;;;;;5051048;28;19915;-59
2023/04/06 03:11:14;;;;;;;;;;;4.40;42.10;;;;;;5051392;28;20014;-59
2023/04/06 03:13:39;;;;;;;;;;;4.30;42.20;;;;;;5039215;28;19986;-59
2023/04/06 03:16:05;;;;;;;;;;;4.40;42.20;;;;;;5031394;28;19964;-59
2023/04/06 03:18:32;;;;;;;;;;;4.40;42.30;;;;;;5031279;28;20385;-60
2023/04/06 03:20:57;;;;;;;;;;;4.30;42.30;;;;;;5032902;28;19913;-59
2023/04/06 03:23:23;;;;;;;;;;;4.30;42.20;;;;;;5035098;28;20012;-59
2023/04/06 03:25:48;;;;;;;;;;;4.30;42.30;;;;;;5035138;28;19968;-59
2023/04/06 03:28:14;;;;;;;;;;;4.30;42.30;;;;;;5035153;28;19917;-62
2023/04/06 03:30:39;;;;;;;;;;;4.30;42.40;;;;;;5035231;28;19913;-62
2023/04/06 03:33:05;;;;;;;;;;;4.30;42.50;;;;;;5034987;28;20005;-59
2023/04/06 03:35:30;;;;;;;;;;;4.30;42.50;;;;;;5044161;28;20050;-58
2023/04/06 03:37:56;;;;;;;;;;;4.30;42.50;;;;;;5054715;28;20007;-61
2023/04/06 03:40:21;;;;;;;;;;;4.30;42.50;;;;;;5054635;28;20310;-58
2023/04/06 03:42:46;;;;;;;;;;;4.20;42.70;;;;;;5054581;28;20382;-58
2023/04/06 03:45:15;;;;;;;;;;;4.20;42.70;;;;;;5054606;28;20368;-58
2023/04/06 03:47:40;;;;;;;;;;;4.10;42.60;;;;;;5054647;28;20452;-58
2023/04/06 03:50:06;;;;;;;;;;;4.10;42.60;;;;;;5054848;28;19994;-59
2023/04/06 03:52:31;;;;;;;;;;;4.10;42.60;;;;;;5055233;28;19920;-57
2023/04/06 03:54:57;;;;;;;;;;;4.00;42.60;;;;;;5054994;28;19967;-58
2023/04/06 03:57:22;;;;;;;;;;;4.00;42.60;;;;;;5054817;28;19917;-59
2023/04/06 03:59:48;;;;;;;;;;;4.00;42.60;;;;;;5054788;28;20422;-58
2023/04/06 04:02:13;;;;;;;;;;;3.90;42.60;;;;;;5055183;28;20015;-59
2023/04/06 04:04:39;;;;;;;;;;;3.90;42.60;;;;;;5054520;28;20357;-59
2023/04/06 04:07:04;;;;;;;;;;;3.90;42.60;;;;;;5054568;28;20419;-59
2023/04/06 04:09:30;;;;;;;;;;;3.90;42.60;;;;;;5054492;28;19913;-58
2023/04/06 04:11:55;;;;;;;;;;;3.90;42.90;;;;;;5054772;28;20202;-58
2023/04/06 04:14:21;;;;;;;;;;;3.80;42.80;;;;;;5036757;28;20265;-59
2023/04/06 04:16:46;;;;;;;;;;;3.80;42.90;;;;;;5034680;28;19916;-64
2023/04/06 04:19:11;;;;;;;;;;;3.80;43.00;;;;;;5034481;28;20011;-59
2023/04/06 04:21:45;;;;;;;;;;;3.80;43.00;;;;;;5034722;28;19917;-59
2023/04/06 04:24:11;;;;;;;;;;;3.80;43.00;;;;;;5034062;28;19918;-59
2023/04/06 04:26:37;;;;;;;;;;;3.80;43.00;;;;;;5034539;28;20261;-59
2023/04/06 04:29:02;;;;;;;;;;;3.80;43.10;;;;;;5033992;28;20359;-58
2023/04/06 04:31:28;;;;;;;;;;;3.80;43.20;;;;;;5033956;28;19909;-57
2023/04/06 04:33:53;;;;;;;;;;;3.80;43.30;;;;;;5033322;28;19918;-57
2023/04/06 04:36:18;;;;;;;;;;;3.90;43.40;;;;;;5049797;28;19915;-59
2023/04/06 04:38:44;;;;;;;;;;;3.90;43.50;;;;;;5053747;28;19947;-58
2023/04/06 04:41:10;;;;;;;;;;;3.90;43.50;;;;;;5054360;28;19913;-58
2023/04/06 04:43:35;;;;;;;;;;;3.90;43.50;;;;;;5054031;28;20269;-61
2023/04/06 04:46:00;;;;;;;;;;;3.90;43.40;;;;;;5053715;28;20399;-60
2023/04/06 04:48:26;;;;;;;;;;;3.90;43.40;;;;;;5053808;28;20357;-58
2023/04/06 04:50:51;;;;;;;;;;;3.90;43.40;;;;;;5053660;28;19915;-58
2023/04/06 04:53:17;;;;;;;;;;;3.80;43.40;;;;;;5053708;28;19924;-58
2023/04/06 04:55:42;;;;;;;;;;;3.90;43.40;;;;;;5054064;28;19912;-58
2023/04/06 04:58:09;;;;;;;;;;;3.80;43.40;;;;;;5053516;28;19917;-58
2023/04/06 05:00:34;;;;;;;;;;;3.90;43.90;;;;;;5053630;28;20276;-58
2023/04/06 05:03:00;;;;;;;;;;;3.90;44.60;;;;;;5053695;28;19916;-59
2023/04/06 05:05:25;;;;;;;;;;;4.10;44.70;;;;;;5053341;28;19912;-58
2023/04/06 05:07:51;;;;;;;;;;;4.20;44.90;;;;;;5053060;28;20291;-58
2023/04/06 05:10:16;;;;;;;;;;;4.30;45.20;;;;;;5053155;28;19920;-58
2023/04/06 05:12:42;;;;;;;;;;;4.50;45.60;;;;;;5049465;28;19913;-59
2023/04/06 05:15:08;;;;;;;;;;;4.70;45.80;;;;;;5033213;28;20259;-58
2023/04/06 05:17:33;;;;;;;;;;;5.00;46.00;;;;;;5033370;28;19919;-58
2023/04/06 05:19:58;;;;;;;;;;;5.30;46.30;;;;;;5032841;28;19963;-58
2023/04/06 05:22:24;;;;;;;;;;;5.60;46.50;;;;;;5040639;28;19925;-60
2023/04/06 05:24:49;;;;;;;;;;;6.00;46.70;;;;;;5031537;28;19941;-60
2023/04/06 05:27:15;;;;;;;;;;;6.30;46.90;;;;;;5031390;28;19917;-60
2023/04/06 05:29:41;;;;;;;;;;;6.70;47.10;;;;;;5033129;28;19920;-60
2023/04/06 05:32:06;;;;;;;;;;;7.10;47.20;;;;;;5029536;28;19991;-62
2023/04/06 05:34:32;;;;;;;;;;;7.60;47.20;;;;;;5033745;28;19963;-60
2023/04/06 05:36:57;;;;;;;;;;;8.00;47.10;;;;;;5018534;28;19917;-60
2023/04/06 05:39:22;;;;;;;;;;;8.50;47.00;;;;;;5021362;28;20082;-60
2023/04/06 05:41:48;;;;;;;;;;;8.90;46.90;;;;;;5032321;28;19920;-62
2023/04/06 05:44:14;;;;;;;;;;;9.30;46.60;;;;;;5027735;28;20352;-60
2023/04/06 05:46:39;;;;;;;;;;;9.80;46.30;;;;;;5032731;28;19921;-60
2023/04/06 05:49:05;;;;;;;;;;;10.20;45.90;;;;;;5031023;28;19924;-60
2023/04/06 05:51:32;;;;;;;;;;;10.70;45.40;;;;;;5023575;28;21368;-59
2023/04/06 05:53:57;;;;;;;;;;;11.10;45.00;;;;;;5026828;28;19925;-60
2023/04/06 05:56:23;;;;;;;;;;;11.50;44.60;;;;;;5032478;28;19918;-59
2023/04/06 05:58:49;;;;;;;;;;;11.80;44.30;;;;;;5031588;28;19913;-60
2023/04/06 06:01:15;;;;;;;;;;;12.20;43.80;;;;;;5031144;28;19925;-59
2023/04/06 06:03:40;;;;;;;;;;;12.60;43.80;;;;;;5030077;28;19913;-58
2023/04/06 06:06:06;;;;;;;;;;;13.10;43.10;;;;;;5026278;28;19922;-60
2023/04/06 06:08:31;;;;;;;;;;;13.50;42.70;;;;;;5028385;28;19975;-60
2023/04/06 06:10:56;;;;;;;;;;;13.90;42.50;;;;;;5021432;28;19918;-60
2023/04/06 06:13:23;;;;;;;;;;;14.30;42.00;;;;;;5022371;28;19971;-60
2023/04/06 06:15:49;;;;;;;;;;;14.80;41.30;;;;;;5031739;28;20376;-59
2023/04/06 06:18:14;;;;;;;;;;;15.20;40.10;;;;;;5032042;28;20437;-60
2023/04/06 06:20:40;;;;;;;;;;;15.60;39.70;;;;;;5031322;28;19967;-60
2023/04/06 06:23:05;;;;;;;;;;;15.90;38.60;;;;;;5030048;28;19913;-61
2023/04/06 06:25:32;;;;;;;;;;;16.30;37.70;;;;;;5032058;28;20490;-59
2023/04/06 06:27:58;;;;;;;;;;;16.60;37.30;;;;;;5031643;28;20008;-60
2023/04/06 06:30:24;;;;;;;;;;;17.00;36.90;;;;;;5039681;28;19917;-60
2023/04/06 06:32:49;;;;;;;;;;;17.40;36.30;;;;;;5051977;28;19916;-60
2023/04/06 06:35:15;;;;;;;;;;;17.80;36.00;;;;;;5045459;28;19917;-58
2023/04/06 06:37:40;;;;;;;;;;;18.20;35.40;;;;;;5051700;28;20000;-58
2023/04/06 06:40:06;;;;;;;;;;;18.60;34.90;;;;;;5036181;28;20051;-60
2023/04/06 06:42:31;;;;;;;;;;;18.90;34.00;;;;;;5031994;28;19920;-59
2023/04/06 06:44:57;;;;;;;;;;;19.30;33.50;;;;;;5031774;28;19913;-60
2023/04/06 06:47:22;;;;;;;;;;;19.60;32.60;;;;;;5031680;28;19917;-60
2023/04/06 06:49:48;;;;;;;;;;;19.90;31.70;;;;;;5029214;28;19913;-60
2023/04/06 06:52:13;;;;;;;;;;;20.20;31.00;;;;;;5032174;28;20360;-60
2023/04/06 06:54:39;;;;;;;;;;;20.40;30.40;;;;;;5021333;28;19919;-59
2023/04/06 06:57:05;;;;;;;;;;;20.60;29.70;;;;;;5012108;28;19918;-63
2023/04/06 06:59:30;;;;;;;;;;;20.70;28.80;;;;;;5020520;28;19913;-58
2023/04/06 07:01:55;;;;;;;;;;;20.90;28.30;;;;;;5031685;28;19956;-60
2023/04/06 07:04:21;;;;;;;;;;;21.00;27.10;;;;;;5029988;28;19913;-58
2023/04/06 07:06:46;;;;;;;;;;;21.00;26.70;;;;;;5032023;28;19921;-62
2023/04/06 07:09:12;;;;;;;;;;;21.00;26.50;;;;;;5030387;28;20289;-60
2023/04/06 07:11:37;;;;;;;;;;;21.10;26.20;;;;;;5031530;28;20013;-60
2023/04/06 07:14:02;;;;;;;;;;;21.30;26.10;;;;;;5028161;28;20447;-62
2023/04/06 07:16:28;;;;;;;;;;;21.50;26.00;;;;;;5031833;28;19988;-59
2023/04/06 07:18:53;;;;;;;;;;;21.70;25.60;;;;;;5023336;28;20050;-61
2023/04/06 07:21:19;;;;;;;;;;;21.80;25.10;;;;;;5031514;28;20361;-60
2023/04/06 07:23:44;;;;;;;;;;;22.00;25.10;;;;;;5029613;28;20369;-59
2023/04/06 07:26:10;;;;;;;;;;;22.20;24.80;;;;;;5030264;28;20369;-60
2023/04/06 07:28:35;;;;;;;;;;;22.30;24.80;;;;;;5028170;28;19909;-60
2023/04/06 07:31:01;;;;;;;;;;;22.40;24.20;;;;;;5031325;28;19917;-60
2023/04/06 07:33:29;;;;;;;;;;;22.50;24.20;;;;;;5030628;28;20365;-60
2023/04/06 07:35:55;;;;;;;;;;;22.80;24.40;;;;;;5021133;28;19967;-61
2023/04/06 07:38:21;;;;;;;;;;;23.20;24.00;;;;;;5018342;28;19921;-61
2023/04/06 07:40:46;;;;;;;;;;;23.30;23.50;;;;;;5031234;28;19971;-61
2023/04/06 07:43:11;;;;;;;;;;;23.60;23.40;;;;;;5026346;28;19913;-61
2023/04/06 07:45:37;;;;;;;;;;;23.80;23.20;;;;;;5030115;28;19940;-60
2023/04/06 07:48:02;;;;;;;;;;;24.00;22.30;;;;;;5023619;28;19917;-61
2023/04/06 07:50:28;;;;;;;;;;;24.10;22.40;;;;;;5031268;28;19924;-60
2023/04/06 07:52:53;;;;;;;;;;;24.30;22.40;;;;;;5027836;28;19924;-60
2023/04/06 07:55:19;;;;;;;;;;;24.50;22.30;;;;;;5029761;28;19972;-60
2023/04/06 07:57:44;;;;;;;;;;;24.60;21.70;;;;;;5024247;28;19961;-60
2023/04/06 08:00:10;;;;;;;;;;;24.70;21.20;;;;;;5030739;28;19910;-67
2023/04/06 08:02:36;;;;;;;;;;;24.80;21.50;;;;;;5028861;28;19913;-62
2023/04/06 08:05:01;;;;;;;;;;;25.10;21.90;;;;;;5030711;28;19966;-60
2023/04/06 08:07:27;;;;;;;;;;;25.30;21.50;;;;;;5018365;28;19932;-60
2023/04/06 08:09:52;;;;;;;;;;;25.50;21.40;;;;;;5034362;28;19920;-63
2023/04/06 08:12:18;;;;;;;;;;;25.60;21.00;;;;;;5033819;28;19921;-61
2023/04/06 08:14:43;;;;;;;;;;;25.70;20.80;;;;;;5034741;28;19909;-59
2023/04/06 08:17:08;;;;;;;;;;;25.90;21.10;;;;;;5031692;28;19924;-59
2023/04/06 08:19:34;;;;;;;;;;;26.10;20.90;;;;;;5019205;28;19921;-64
2023/04/06 08:21:59;;;;;;;;;;;26.40;20.90;;;;;;5034093;28;20413;-60
2023/04/06 08:24:25;;;;;;;;;;;26.70;20.50;;;;;;5040574;28;19935;-60
2023/04/06 08:26:51;;;;;;;;;;;27.10;20.50;;;;;;5033568;28;20418;-60
2023/04/06 08:29:16;;;;;;;;;;;27.30;20.30;;;;;;5030113;28;19967;-62
2023/04/06 08:31:42;;;;;;;;;;;27.60;19.60;;;;;;5034600;28;20347;-64
2023/04/06 08:34:08;;;;;;;;;;;27.80;19.60;;;;;;5030346;28;19972;-61
2023/04/06 08:36:33;;;;;;;;;;;28.00;19.60;;;;;;5051914;28;20346;-59
2023/04/06 08:38:59;;;;;;;;;;;28.30;19.00;;;;;;5032947;28;19923;-59
2023/04/06 08:41:25;;;;;;;;;;;28.30;19.10;;;;;;5034241;28;19917;-60
2023/04/06 08:44:00;;;;;;;;;;;28.60;18.80;;;;;;5032656;28;19967;-59
2023/04/06 08:46:29;;;;;;;;;;;28.80;19.10;;;;;;5032912;28;20013;-60
2023/04/06 08:48:55;;;;;;;;;;;28.90;18.30;;;;;;5030015;28;19916;-59
2023/04/06 08:51:22;;;;;;;;;;;28.80;17.90;;;;;;5028286;28;20341;-61
2023/04/06 08:53:49;;;;;;;;;;;28.60;17.50;;;;;;5022206;28;19958;-59
2023/04/06 08:56:15;;;;;;;;;;;28.30;17.70;;;;;;5027698;28;19940;-59
2023/04/06 08:58:41;;;;;;;;;;;28.20;17.70;;;;;;5024232;28;19909;-59
2023/04/06 09:01:08;;;;;;;;;;;28.00;17.90;;;;;;5032734;28;19963;-60
2023/04/06 09:03:39;;;;;;;;;;;28.00;18.50;;;;;;5032534;28;19917;-60
2023/04/06 09:06:05;;;;;;;;;;;28.30;18.20;;;;;;5030917;28;19928;-60
2023/04/06 09:08:32;;;;;;;;;;;28.40;18.10;;;;;;5030008;28;19948;-61
2023/04/06 09:10:57;;;;;;;;;;;28.50;17.90;;;;;;5032745;28;20030;-59
2023/04/06 09:13:23;;;;;;;;;;;28.70;18.30;;;;;;5033299;28;20027;-60
2023/04/06 09:15:58;;;;;;;;;;;28.80;17.80;;;;;;5032787;28;20307;-60
2023/04/06 09:18:33;;;;;;;;;;;29.00;18.00;;;;;;5029102;28;19932;-63
2023/04/06 09:21:02;;;;;;;;;;;28.90;17.60;;;;;;5031675;28;20276;-59
2023/04/06 09:23:27;;;;;;;;;;;29.10;17.80;;;;;;5033212;28;20401;-60
2023/04/06 09:26:09;;;;;;;;;;;29.20;17.40;;;;;;5025623;28;19928;-60
2023/04/06 09:28:45;;;;;;;;;;;29.30;17.40;;;;;;5025529;28;19920;-60
2023/04/06 09:31:11;;;;;;;;;;;29.50;17.10;;;;;;5022461;28;19923;-60
2023/04/06 09:33:37;;;;;;;;;;;29.60;16.50;;;;;;5028727;28;19952;-60
2023/04/06 09:36:03;;;;;;;;;;;29.60;16.60;;;;;;5030862;28;19926;-62
2023/04/06 09:38:28;;;;;;;;;;;29.60;16.70;;;;;;5029154;28;19917;-60
2023/04/06 09:40:54;;;;;;;;;;;29.50;15.80;;;;;;5030449;28;20039;-60
2023/04/06 09:43:28;;;;;;;;;;;29.30;16.00;;;;;;5030953;28;19967;-60
2023/04/06 09:45:55;;;;;;;;;;;29.10;16.30;;;;;;5027944;28;19924;-59
2023/04/06 09:48:21;;;;;;;;;;;28.90;16.50;;;;;;5026071;28;19921;-60
2023/04/06 09:50:53;;;;;;;;;;;29.20;16.70;;;;;;5031224;28;20399;-61
2023/04/06 09:53:19;;;;;;;;;;;29.50;16.30;;;;;;5031572;28;19913;-60
2023/04/06 09:55:45;;;;;;;;;;;29.60;15.50;;;;;;5032649;28;20329;-60
2023/04/06 09:58:12;;;;;;;;;;;29.50;14.80;;;;;;5028061;28;19913;-59
2023/04/06 10:00:47;;;;;;;;;;;29.30;14.40;;;;;;5039788;28;20343;-60
2023/04/06 10:03:16;;;;;;;;;;;29.40;14.50;;;;;;5032185;28;19963;-60
2023/04/06 10:05:43;;;;;;;;;;;29.50;14.30;;;;;;5030001;28;20341;-60
2023/04/06 10:08:09;;;;;;;;;;;29.80;14.50;;;;;;5029633;28;20004;-62
2023/04/06 10:10:35;;;;;;;;;;;30.00;14.30;;;;;;5032567;28;19917;-61
2023/04/06 10:13:01;;;;;;;;;;;30.30;14.20;;;;;;5029717;28;19936;-62
2023/04/06 10:15:28;;;;;;;;;;;30.50;14.00;;;;;;5032521;28;19916;-61
2023/04/06 10:17:54;;;;;;;;;;;30.40;13.50;;;;;;5027469;28;19940;-61
2023/04/06 10:20:29;;;;;;;;;;;30.60;13.80;;;;;;5032316;28;19921;-60
2023/04/06 10:22:56;;;;;;;;;;;30.70;13.50;;;;;;5030950;28;20010;-60
2023/04/06 10:25:29;;;;;;;;;;;30.80;13.80;;;;;;5023991;28;20284;-61
2023/04/06 10:28:00;;;;;;;;;;;30.60;13.30;;;;;;5016358;28;19924;-60
2023/04/06 10:30:26;;;;;;;;;;;30.50;13.60;;;;;;5023031;28;19924;-61
2023/04/06 10:32:51;;;;;;;;;;;30.50;13.90;;;;;;5012822;28;19910;-60
2023/04/06 10:35:17;;;;;;;;;;;30.90;14.10;;;;;;5024935;28;20381;-60
2023/04/06 10:37:47;;;;;;;;;;;30.90;13.30;;;;;;5015148;28;20546;-60
2023/04/06 10:40:23;;;;;;;;;;;30.80;13.20;;;;;;5015823;28;19917;-61
2023/04/06 10:42:48;;;;;;;;;;;30.70;13.30;;;;;;5032070;28;20308;-61
2023/04/06 10:45:25;;;;;;;;;;;30.60;13.30;;;;;;5031432;28;19913;-61
2023/04/06 10:47:53;;;;;;;;;;;30.80;13.50;;;;;;5027829;28;19933;-61
2023/04/06 10:50:19;;;;;;;;;;;30.80;13.20;;;;;;5031182;28;19917;-61
2023/04/06 10:52:45;;;;;;;;;;;31.00;13.70;;;;;;5027536;28;20379;-61
2023/04/06 10:55:11;;;;;;;;;;;31.40;13.70;;;;;;5031520;28;19916;-61
2023/04/06 10:57:37;;;;;;;;;;;31.60;13.20;;;;;;5025324;28;19921;-59
2023/04/06 11:00:07;;;;;;;;;;;31.70;13.20;;;;;;5030886;28;20300;-58
2023/04/06 11:02:34;;;;;;;;;;;31.80;12.90;;;;;;5030279;28;19917;-59
2023/04/06 11:04:59;;;;;;;;;;;31.50;12.80;;;;;;5029981;28;19916;-59
2023/04/06 11:07:26;;;;;;;;;;;31.40;12.80;;;;;;5028968;28;19929;-59
2023/04/06 11:09:52;;;;;;;;;;;31.30;13.10;;;;;;5030014;28;19916;-60
2023/04/06 11:12:22;;;;;;;;;;;31.40;13.00;;;;;;5022051;28;19921;-59
2023/04/06 11:14:55;;;;;;;;;;;31.40;13.20;;;;;;5027782;28;19921;-60
2023/04/06 11:17:27;;;;;;;;;;;31.50;13.30;;;;;;5027540;28;20458;-61
2023/04/06 11:19:53;;;;;;;;;;;31.80;13.50;;;;;;5027576;28;20266;-60
2023/04/06 11:22:19;;;;;;;;;;;32.00;13.60;;;;;;5031306;28;19925;-61
2023/04/06 11:24:44;;;;;;;;;;;32.30;13.50;;;;;;5030400;28;19920;-60
2023/04/06 11:27:09;;;;;;;;;;;32.30;13.30;;;;;;5029808;28;19921;-59
2023/04/06 11:29:37;;;;;;;;;;;32.40;13.20;;;;;;5027075;28;20000;-61
2023/04/06 11:32:04;;;;;;;;;;;32.60;13.40;;;;;;5030125;28;19917;-59
2023/04/06 11:34:30;;;;;;;;;;;32.70;13.10;;;;;;5025634;28;20003;-59
2023/04/06 11:36:56;;;;;;;;;;;32.60;12.90;;;;;;5050908;28;19920;-58
2023/04/06 11:39:23;;;;;;;;;;;32.50;12.90;;;;;;5026299;28;19924;-58
2023/04/06 11:41:53;;;;;;;;;;;32.50;12.90;;;;;;5028959;28;19917;-59
2023/04/06 11:44:40;;;;;;;;;;;32.50;12.80;;;;;;5031869;28;19924;-60
2023/04/06 11:47:06;;;;;;;;;;;32.40;12.60;;;;;;5033227;28;19928;-58
2023/04/06 11:49:32;;;;;;;;;;;32.10;12.20;;;;;;5028583;28;19966;-61
2023/04/06 11:51:59;;;;;;;;;;;32.00;12.40;;;;;;5035367;28;19975;-62
2023/04/06 11:54:31;;;;;;;;;;;32.00;12.30;;;;;;5032852;28;20395;-59
2023/04/06 11:56:56;;;;;;;;;;;32.00;12.30;;;;;;5017585;28;19926;-59
2023/04/06 11:59:22;;;;;;;;;;;31.80;12.00;;;;;;5031019;28;19909;-59
2023/04/06 12:01:48;;;;;;;;;;;31.70;12.10;;;;;;5030280;28;20019;-58
2023/04/06 12:04:13;;;;;;;;;;;31.50;12.00;;;;;;5030902;28;20067;-60
2023/04/06 12:06:39;;;;;;;;;;;31.20;12.30;;;;;;5031713;28;19921;-57
2023/04/06 12:09:04;;;;;;;;;;;31.30;12.40;;;;;;5031133;28;20361;-62
2023/04/06 12:11:30;;;;;;;;;;;31.20;12.40;;;;;;5028473;28;20349;-58
2023/04/06 12:13:55;;;;;;;;;;;31.20;12.60;;;;;;5023774;28;20353;-58
2023/04/06 12:16:20;;;;;;;;;;;31.30;12.60;;;;;;5024294;28;19922;-57
2023/04/06 12:18:46;;;;;;;;;;;31.50;12.50;;;;;;5030870;28;20373;-59
2023/04/06 12:21:11;;;;;;;;;;;31.50;12.30;;;;;;5027260;28;19925;-60
2023/04/06 12:23:37;;;;;;;;;;;31.40;11.90;;;;;;5021120;28;19916;-66
2023/04/06 12:26:02;;;;;;;;;;;31.10;11.70;;;;;;5023595;28;19921;-59
2023/04/06 12:28:28;;;;;;;;;;;30.80;11.70;;;;;;5022990;28;20007;-58
2023/04/06 12:30:55;;;;;;;;;;;30.60;11.70;;;;;;5025541;28;20304;-59
2023/04/06 12:33:21;;;;;;;;;;;30.40;11.70;;;;;;5022718;28;19952;-60
2023/04/06 12:35:46;;;;;;;;;;;30.30;11.70;;;;;;5029419;28;19949;-59
2023/04/06 12:38:12;;;;;;;;;;;30.10;11.70;;;;;;5023243;28;20280;-60
2023/04/06 12:40:38;;;;;;;;;;;30.00;12.00;;;;;;5032451;28;20016;-59
2023/04/06 12:43:03;;;;;;;;;;;29.80;12.00;;;;;;5033846;28;19915;-60
2023/04/06 12:45:30;;;;;;;;;;;29.30;11.80;;;;;;5029507;28;20011;-59
2023/04/06 12:47:55;;;;;;;;;;;29.10;11.80;;;;;;5018877;28;19975;-63
2023/04/06 12:50:21;;;;;;;;;;;29.00;12.20;;;;;;5032309;28;19924;-59
2023/04/06 12:52:47;;;;;;;;;;;29.00;12.20;;;;;;5032731;28;19917;-59
2023/04/06 12:55:12;;;;;;;;;;;28.80;12.20;;;;;;5030453;28;19921;-59
2023/04/06 12:57:38;;;;;;;;;;;28.70;12.50;;;;;;5017189;28;19928;-59
2023/04/06 13:00:04;;;;;;;;;;;28.80;12.60;;;;;;5031072;28;20354;-61
2023/04/06 13:02:30;;;;;;;;;;;29.00;12.60;;;;;;5033987;28;20284;-59
2023/04/06 13:04:55;;;;;;;;;;;29.10;12.20;;;;;;5032963;28;20000;-59
2023/04/06 13:07:21;;;;;;;;;;;29.10;12.40;;;;;;5029842;28;20411;-60
2023/04/06 13:09:49;;;;;;;;;;;29.30;12.30;;;;;;5031568;28;19913;-58
2023/04/06 13:12:14;;;;;;;;;;;29.30;11.70;;;;;;5019884;28;19929;-59
2023/04/06 13:14:40;;;;;;;;;;;29.00;12.00;;;;;;5027783;28;20300;-60
2023/04/06 13:17:06;;;;;;;;;;;28.90;12.30;;;;;;5032854;28;19918;-60
2023/04/06 13:19:32;;;;;;;;;;;28.80;12.10;;;;;;5030697;28;20296;-58
2023/04/06 13:21:57;;;;;;;;;;;28.50;11.90;;;;;;5033736;28;19921;-59
2023/04/06 13:24:23;;;;;;;;;;;28.10;12.30;;;;;;5032194;28;19913;-59
2023/04/06 13:26:48;;;;;;;;;;;27.70;12.60;;;;;;5030032;28;19948;-62
2023/04/06 13:29:14;;;;;;;;;;;27.20;12.90;;;;;;5028739;28;19960;-58
2023/04/06 13:31:39;;;;;;;;;;;26.70;13.10;;;;;;5032413;28;19970;-62
2023/04/06 13:34:05;;;;;;;;;;;26.30;13.40;;;;;;5028482;28;19913;-59
2023/04/06 13:36:32;;;;;;;;;;;25.80;13.70;;;;;;5033362;28;20008;-59
2023/04/06 13:38:57;;;;;;;;;;;25.30;14.00;;;;;;5027623;28;20365;-59
2023/04/06 13:41:24;;;;;;;;;;;25.00;14.40;;;;;;5033313;28;19925;-59
2023/04/06 13:43:49;;;;;;;;;;;24.70;14.60;;;;;;5031612;28;20327;-63
2023/04/06 13:46:15;;;;;;;;;;;24.30;15.10;;;;;;5032986;28;19921;-60
2023/04/06 13:48:40;;;;;;;;;;;24.10;15.60;;;;;;5027145;28;19956;-60
2023/04/06 13:51:13;;;;;;;;;;;23.80;15.80;;;;;;5032904;28;19917;-60
2023/04/06 13:53:39;;;;;;;;;;;23.70;16.20;;;;;;5031676;28;19924;-61
2023/04/06 13:56:05;;;;;;;;;;;23.50;16.30;;;;;;5032755;28;19921;-59
2023/04/06 13:58:30;;;;;;;;;;;23.30;16.10;;;;;;5027474;28;19913;-58
2023/04/06 14:01:01;;;;;;;;;;;23.10;16.20;;;;;;5032770;28;19925;-61
2023/04/06 14:03:27;;;;;;;;;;;23.00;16.30;;;;;;5031542;28;19913;-58
2023/04/06 14:05:52;;;;;;;;;;;22.70;16.40;;;;;;5032028;28;20423;-60
2023/04/06 14:08:18;;;;;;;;;;;22.50;16.50;;;;;;5027432;28;20311;-62
2023/04/06 14:10:43;;;;;;;;;;;22.30;16.60;;;;;;5032214;28;20342;-62
2023/04/06 14:13:09;;;;;;;;;;;22.30;16.70;;;;;;5020984;28;20373;-63
2023/04/06 14:15:35;;;;;;;;;;;22.00;16.80;;;;;;5031474;28;19963;-59